sensor_id;sensor_type;location;lat;lon;timestamp;temperature;humidity
11089;DHT22;5598;48.648;8.908;2023-02-01T00:02:09;2.10;99.90
11089;DHT22;5598;48.648;8.908;2023-02-01T00:04:35;2.10;99.90
11089;DHT22;5598;48.648;8.908;2023-02-01T00:07:02;2.10;99.90
11089;DHT22;5598;48.648;8.908;2023-02-01T00:09:29;2.10;99.90
11089;DHT22;5598;48.648;8.908;2023-02-01T00:11:57;2.10;99.90
11089;DHT22;5598;48.648;8.908;2023-02-01T00:14:27;2.10;99.90
11089;DHT22;5598;48.648;8.908;2023-02-01T00:16:54;2.10;99.90
11089;DHT22;5598;48.648;8.908;2023-02-01T00:19:20;2.20;99.90
11089;DHT22;5598;48.648;8.908;2023-02-01T00:21:47;2.10;99.90
11089;DHT22;5598;48.648;8.908;2023-02-01T00:24:14;2.10;99.90
11089;DHT22;5598;48.648;8.908;2023-02-01T00:26:42;2.10;99.90
11089;DHT22;5598;48.648;8.908;2023-02-01T00:29:13;2.10;99.90
11089;DHT22;5598;48.648;8.908;2023-02-01T00:31:40;2.10;99.90
11089;DHT22;5598;48.648;8.908;2023-02-01T00:34:08;2.10;99.90
11089;DHT22;5598;48.648;8.908;2023-02-01T00:36:36;2.20;99.90
11089;DHT22;5598;48.648;8.908;2023-02-01T00:39:03;2.20;99.90
11089;DHT22;5598;48.648;8.908;2023-02-01T00:41:30;2.20;99.90
11089;DHT22;5598;48.648;8.908;2023-02-01T00:43:57;2.10;99.90
11089;DHT22;5598;48.648;8.908;2023-02-01T00:46:28;2.20;99.90
11089;DHT22;5598;48.648;8.908;2023-02-01T00:48:55;2.20;99.90
11089;DHT22;5598;48.648;8.908;2023-02-01T00:51:24;2.20;99.90
11089;DHT22;5598;48.648;8.908;2023-02-01T00:53:51;2.20;99.90
11089;DHT22;5598;48.648;8.908;2023-02-01T00:56:19;2.20;99.90
11089;DHT22;5598;48.648;8.908;2023-02-01T00:58:46;2.20;99.90
11089;DHT22;5598;48.648;8.908;2023-02-01T01:01:15;2.20;99.90
11089;DHT22;5598;48.648;8.908;2023-02-01T01:03:46;2.20;99.90
11089;DHT22;5598;48.648;8.908;2023-02-01T01:06:16;2.20;99.90
11089;DHT22;5598;48.648;8.908;2023-02-01T01:08:43;2.10;99.90
11089;DHT22;5598;48.648;8.908;2023-02-01T01:11:13;2.10;99.90
11089;DHT22;5598;48.648;8.908;2023-02-01T01:13:40;2.20;99.90
11089;DHT22;5598;48.648;8.908;2023-02-01T01:16:08;2.20;99.90
11089;DHT22;5598;48.648;8.908;2023-02-01T01:18:36;2.10;99.90
11089;DHT22;5598;48.648;8.908;2023-02-01T01:21:06;2.10;99.90
11089;DHT22;5598;48.648;8.908;2023-02-01T01:23:34;2.10;99.90
11089;DHT22;5598;48.648;8.908;2023-02-01T01:26:05;2.10;99.90
11089;DHT22;5598;48.648;8.908;2023-02-01T01:28:32;2.10;99.90
11089;DHT22;5598;48.648;8.908;2023-02-01T01:30:58;2.10;99.90
11089;DHT22;5598;48.648;8.908;2023-02-01T01:33:25;2.10;99.90
11089;DHT22;5598;48.648;8.908;2023-02-01T01:35:52;2.10;99.90
11089;DHT22;5598;48.648;8.908;2023-02-01T01:38:20;2.10;99.90
11089;DHT22;5598;48.648;8.908;2023-02-01T01:40:48;2.10;99.90
11089;DHT22;5598;48.648;8.908;2023-02-01T01:43:17;2.10;99.90
11089;DHT22;5598;48.648;8.908;2023-02-01T01:45:45;2.10;99.90
11089;DHT22;5598;48.648;8.908;2023-02-01T01:48:14;2.10;99.90
11089;DHT22;5598;48.648;8.908;2023-02-01T01:50:44;2.10;99.90
11089;DHT22;5598;48.648;8.908;2023-02-01T01:53:16;2.10;99.90
11089;DHT22;5598;48.648;8.908;2023-02-01T01:55:47;2.00;99.90
11089;DHT22;5598;48.648;8.908;2023-02-01T01:58:19;2.10;99.90
11089;DHT22;5598;48.648;8.908;2023-02-01T02:00:47;2.10;99.90
11089;DHT22;5598;48.648;8.908;2023-02-01T02:03:17;2.00;99.90
11089;DHT22;5598;48.648;8.908;2023-02-01T02:05:45;2.10;99.90
11089;DHT22;5598;48.648;8.908;2023-02-01T02:08:12;2.10;99.90
11089;DHT22;5598;48.648;8.908;2023-02-01T02:10:39;2.10;99.90
11089;DHT22;5598;48.648;8.908;2023-02-01T02:13:26;2.10;99.90
11089;DHT22;5598;48.648;8.908;2023-02-01T02:18:49;2.10;99.90
11089;DHT22;5598;48.648;8.908;2023-02-01T02:21:23;2.10;99.90
11089;DHT22;5598;48.648;8.908;2023-02-01T02:24:34;2.20;99.90
11089;DHT22;5598;48.648;8.908;2023-02-01T02:27:12;2.30;99.90
11089;DHT22;5598;48.648;8.908;2023-02-01T02:30:08;2.30;99.90
11089;DHT22;5598;48.648;8.908;2023-02-01T02:33:01;2.30;99.90
11089;DHT22;5598;48.648;8.908;2023-02-01T02:35:41;2.40;99.90
11089;DHT22;5598;48.648;8.908;2023-02-01T02:38:16;2.40;99.90
11089;DHT22;5598;48.648;8.908;2023-02-01T02:40:49;2.40;99.90
11089;DHT22;5598;48.648;8.908;2023-02-01T02:43:21;2.40;99.90
11089;DHT22;5598;48.648;8.908;2023-02-01T02:46:10;2.40;99.90
11089;DHT22;5598;48.648;8.908;2023-02-01T02:48:57;2.50;99.90
11089;DHT22;5598;48.648;8.908;2023-02-01T02:51:30;2.50;99.90
11089;DHT22;5598;48.648;8.908;2023-02-01T02:54:20;2.50;99.90
11089;DHT22;5598;48.648;8.908;2023-02-01T02:57:09;2.60;99.90
11089;DHT22;5598;48.648;8.908;2023-02-01T02:59:55;2.60;99.90
11089;DHT22;5598;48.648;8.908;2023-02-01T03:02:41;2.60;99.90
11089;DHT22;5598;48.648;8.908;2023-02-01T03:05:32;2.60;99.90
11089;DHT22;5598;48.648;8.908;2023-02-01T03:08:08;2.50;99.90
11089;DHT22;5598;48.648;8.908;2023-02-01T03:10:42;2.50;99.90
11089;DHT22;5598;48.648;8.908;2023-02-01T03:13:13;2.50;99.90
11089;DHT22;5598;48.648;8.908;2023-02-01T03:15:46;2.50;99.90
11089;DHT22;5598;48.648;8.908;2023-02-01T03:18:20;2.50;99.90
11089;DHT22;5598;48.648;8.908;2023-02-01T03:20:51;2.50;99.90
11089;DHT22;5598;48.648;8.908;2023-02-01T03:23:24;2.40;99.90
11089;DHT22;5598;48.648;8.908;2023-02-01T03:25:55;2.40;99.90
11089;DHT22;5598;48.648;8.908;2023-02-01T03:28:26;2.40;99.90
11089;DHT22;5598;48.648;8.908;2023-02-01T03:30:54;2.50;99.90
11089;DHT22;5598;48.648;8.908;2023-02-01T03:33:23;2.50;99.90
11089;DHT22;5598;48.648;8.908;2023-02-01T03:35:57;2.40;99.90
11089;DHT22;5598;48.648;8.908;2023-02-01T03:38:30;2.40;99.90
11089;DHT22;5598;48.648;8.908;2023-02-01T03:41:03;2.40;99.90
11089;DHT22;5598;48.648;8.908;2023-02-01T03:43:39;2.40;99.90
11089;DHT22;5598;48.648;8.908;2023-02-01T03:46:12;2.40;99.90
11089;DHT22;5598;48.648;8.908;2023-02-01T03:48:41;2.40;99.90
11089;DHT22;5598;48.648;8.908;2023-02-01T03:51:09;2.40;99.90
11089;DHT22;5598;48.648;8.908;2023-02-01T03:53:40;2.40;99.90
11089;DHT22;5598;48.648;8.908;2023-02-01T03:56:08;2.30;99.90
11089;DHT22;5598;48.648;8.908;2023-02-01T03:58:37;2.40;99.90
11089;DHT22;5598;48.648;8.908;2023-02-01T04:01:04;2.40;99.90
11089;DHT22;5598;48.648;8.908;2023-02-01T04:03:31;2.40;99.90
11089;DHT22;5598;48.648;8.908;2023-02-01T04:05:58;2.40;99.90
11089;DHT22;5598;48.648;8.908;2023-02-01T04:08:25;2.40;99.90
11089;DHT22;5598;48.648;8.908;2023-02-01T04:10:53;2.40;99.90
11089;DHT22;5598;48.648;8.908;2023-02-01T04:13:20;2.40;99.90
11089;DHT22;5598;48.648;8.908;2023-02-01T04:15:47;2.40;99.90
11089;DHT22;5598;48.648;8.908;2023-02-01T04:18:15;2.40;99.90
11089;DHT22;5598;48.648;8.908;2023-02-01T04:20:43;2.30;99.90
11089;DHT22;5598;48.648;8.908;2023-02-01T04:23:10;2.30;99.90
11089;DHT22;5598;48.648;8.908;2023-02-01T04:25:37;2.30;99.90
11089;DHT22;5598;48.648;8.908;2023-02-01T04:28:05;2.30;99.90
11089;DHT22;5598;48.648;8.908;2023-02-01T04:30:32;2.30;99.90
11089;DHT22;5598;48.648;8.908;2023-02-01T04:32:59;2.30;99.90
11089;DHT22;5598;48.648;8.908;2023-02-01T04:35:29;2.40;99.90
11089;DHT22;5598;48.648;8.908;2023-02-01T04:37:55;2.40;99.90
11089;DHT22;5598;48.648;8.908;2023-02-01T04:40:22;2.50;99.90
11089;DHT22;5598;48.648;8.908;2023-02-01T04:42:49;2.50;99.90
11089;DHT22;5598;48.648;8.908;2023-02-01T04:45:17;2.50;99.90
11089;DHT22;5598;48.648;8.908;2023-02-01T04:47:44;2.50;99.90
11089;DHT22;5598;48.648;8.908;2023-02-01T04:50:10;2.50;99.90
11089;DHT22;5598;48.648;8.908;2023-02-01T04:52:37;2.60;99.90
11089;DHT22;5598;48.648;8.908;2023-02-01T04:55:05;2.60;99.90
11089;DHT22;5598;48.648;8.908;2023-02-01T04:57:32;2.60;99.90
11089;DHT22;5598;48.648;8.908;2023-02-01T04:59:58;2.60;99.90
11089;DHT22;5598;48.648;8.908;2023-02-01T05:02:26;2.70;99.90
11089;DHT22;5598;48.648;8.908;2023-02-01T05:04:53;2.70;99.90
11089;DHT22;5598;48.648;8.908;2023-02-01T05:07:21;2.80;99.90
11089;DHT22;5598;48.648;8.908;2023-02-01T05:09:48;2.80;99.90
11089;DHT22;5598;48.648;8.908;2023-02-01T05:12:14;2.70;99.90
11089;DHT22;5598;48.648;8.908;2023-02-01T05:14:59;2.60;99.90
11089;DHT22;5598;48.648;8.908;2023-02-01T05:17:27;2.60;99.90
11089;DHT22;5598;48.648;8.908;2023-02-01T05:19:54;2.50;99.90
11089;DHT22;5598;48.648;8.908;2023-02-01T05:22:21;2.50;99.90
11089;DHT22;5598;48.648;8.908;2023-02-01T05:24:48;2.50;99.90
11089;DHT22;5598;48.648;8.908;2023-02-01T05:27:14;2.50;99.90
11089;DHT22;5598;48.648;8.908;2023-02-01T05:29:41;2.50;99.90
11089;DHT22;5598;48.648;8.908;2023-02-01T05:32:09;2.40;99.90
11089;DHT22;5598;48.648;8.908;2023-02-01T05:34:38;2.40;99.90
11089;DHT22;5598;48.648;8.908;2023-02-01T05:37:04;2.50;99.90
11089;DHT22;5598;48.648;8.908;2023-02-01T05:39:31;2.40;99.90
11089;DHT22;5598;48.648;8.908;2023-02-01T05:41:58;2.50;99.90
11089;DHT22;5598;48.648;8.908;2023-02-01T05:44:25;2.50;99.90
11089;DHT22;5598;48.648;8.908;2023-02-01T05:46:51;2.50;99.90
11089;DHT22;5598;48.648;8.908;2023-02-01T05:49:18;2.50;99.90
11089;DHT22;5598;48.648;8.908;2023-02-01T05:51:46;2.50;99.90
11089;DHT22;5598;48.648;8.908;2023-02-01T05:54:13;2.50;99.90
11089;DHT22;5598;48.648;8.908;2023-02-01T05:56:40;2.50;99.90
11089;DHT22;5598;48.648;8.908;2023-02-01T05:59:07;2.50;99.90
11089;DHT22;5598;48.648;8.908;2023-02-01T06:01:34;2.50;99.90
11089;DHT22;5598;48.648;8.908;2023-02-01T06:04:00;2.50;99.90
11089;DHT22;5598;48.648;8.908;2023-02-01T06:06:27;2.40;99.90
11089;DHT22;5598;48.648;8.908;2023-02-01T06:08:55;2.40;99.90
11089;DHT22;5598;48.648;8.908;2023-02-01T06:11:22;2.40;99.90
11089;DHT22;5598;48.648;8.908;2023-02-01T06:13:49;2.40;99.90
11089;DHT22;5598;48.648;8.908;2023-02-01T06:16:19;2.40;99.90
11089;DHT22;5598;48.648;8.908;2023-02-01T06:18:51;2.40;99.90
11089;DHT22;5598;48.648;8.908;2023-02-01T06:21:17;2.40;99.90
11089;DHT22;5598;48.648;8.908;2023-02-01T06:23:49;2.40;99.90
11089;DHT22;5598;48.648;8.908;2023-02-01T06:26:17;2.30;99.90
11089;DHT22;5598;48.648;8.908;2023-02-01T06:28:44;2.40;99.90
11089;DHT22;5598;48.648;8.908;2023-02-01T06:31:11;2.40;99.90
11089;DHT22;5598;48.648;8.908;2023-02-01T06:33:38;2.50;99.90
11089;DHT22;5598;48.648;8.908;2023-02-01T06:36:07;2.50;99.90
11089;DHT22;5598;48.648;8.908;2023-02-01T06:38:34;2.60;99.90
11089;DHT22;5598;48.648;8.908;2023-02-01T06:41:02;2.70;99.90
11089;DHT22;5598;48.648;8.908;2023-02-01T06:43:31;2.70;99.90
11089;DHT22;5598;48.648;8.908;2023-02-01T06:46:00;2.60;99.90
11089;DHT22;5598;48.648;8.908;2023-02-01T06:48:27;2.60;99.90
11089;DHT22;5598;48.648;8.908;2023-02-01T06:50:54;2.70;99.90
11089;DHT22;5598;48.648;8.908;2023-02-01T06:53:20;2.70;99.90
11089;DHT22;5598;48.648;8.908;2023-02-01T06:55:54;2.80;99.90
11089;DHT22;5598;48.648;8.908;2023-02-01T06:58:21;2.80;99.90
11089;DHT22;5598;48.648;8.908;2023-02-01T07:00:49;2.80;99.90
11089;DHT22;5598;48.648;8.908;2023-02-01T07:03:19;2.80;99.90
11089;DHT22;5598;48.648;8.908;2023-02-01T07:05:46;2.90;99.90
11089;DHT22;5598;48.648;8.908;2023-02-01T07:08:13;2.80;99.90
11089;DHT22;5598;48.648;8.908;2023-02-01T07:10:39;2.90;99.90
11089;DHT22;5598;48.648;8.908;2023-02-01T07:13:06;2.90;99.90
11089;DHT22;5598;48.648;8.908;2023-02-01T07:15:33;3.00;99.90
11089;DHT22;5598;48.648;8.908;2023-02-01T07:18:01;3.10;99.90
11089;DHT22;5598;48.648;8.908;2023-02-01T07:20:28;3.10;99.90
11089;DHT22;5598;48.648;8.908;2023-02-01T07:22:55;3.10;99.90
11089;DHT22;5598;48.648;8.908;2023-02-01T07:25:22;3.10;99.90
11089;DHT22;5598;48.648;8.908;2023-02-01T07:27:49;3.20;99.90
11089;DHT22;5598;48.648;8.908;2023-02-01T07:30:17;3.20;99.90
11089;DHT22;5598;48.648;8.908;2023-02-01T07:32:44;3.20;99.90
11089;DHT22;5598;48.648;8.908;2023-02-01T07:35:12;3.20;99.90
11089;DHT22;5598;48.648;8.908;2023-02-01T07:37:39;3.10;99.90
11089;DHT22;5598;48.648;8.908;2023-02-01T07:40:07;3.10;99.90
11089;DHT22;5598;48.648;8.908;2023-02-01T07:42:34;3.10;99.90
11089;DHT22;5598;48.648;8.908;2023-02-01T07:45:01;3.20;99.90
11089;DHT22;5598;48.648;8.908;2023-02-01T07:47:29;3.30;99.90
11089;DHT22;5598;48.648;8.908;2023-02-01T07:49:55;3.40;99.90
11089;DHT22;5598;48.648;8.908;2023-02-01T07:52:23;3.50;99.90
11089;DHT22;5598;48.648;8.908;2023-02-01T07:54:50;3.50;99.90
11089;DHT22;5598;48.648;8.908;2023-02-01T07:57:17;3.50;99.90
11089;DHT22;5598;48.648;8.908;2023-02-01T07:59:44;3.50;99.90
11089;DHT22;5598;48.648;8.908;2023-02-01T08:02:24;3.50;99.90
11089;DHT22;5598;48.648;8.908;2023-02-01T08:04:51;3.50;99.90
11089;DHT22;5598;48.648;8.908;2023-02-01T08:07:18;3.50;99.90
11089;DHT22;5598;48.648;8.908;2023-02-01T08:09:47;3.60;99.90
11089;DHT22;5598;48.648;8.908;2023-02-01T08:12:13;3.60;99.90
11089;DHT22;5598;48.648;8.908;2023-02-01T08:14:40;3.60;99.90
11089;DHT22;5598;48.648;8.908;2023-02-01T08:17:07;3.60;99.90
11089;DHT22;5598;48.648;8.908;2023-02-01T08:19:34;3.70;99.90
11089;DHT22;5598;48.648;8.908;2023-02-01T08:22:00;3.70;99.90
11089;DHT22;5598;48.648;8.908;2023-02-01T08:24:32;3.70;99.90
11089;DHT22;5598;48.648;8.908;2023-02-01T08:27:02;3.60;99.90
11089;DHT22;5598;48.648;8.908;2023-02-01T08:29:29;3.70;99.90
11089;DHT22;5598;48.648;8.908;2023-02-01T08:31:56;3.70;99.90
11089;DHT22;5598;48.648;8.908;2023-02-01T08:34:23;3.70;99.90
11089;DHT22;5598;48.648;8.908;2023-02-01T08:36:50;3.80;99.90
11089;DHT22;5598;48.648;8.908;2023-02-01T08:39:17;3.80;99.90
11089;DHT22;5598;48.648;8.908;2023-02-01T08:41:44;3.80;99.90
11089;DHT22;5598;48.648;8.908;2023-02-01T08:44:34;3.80;99.90
11089;DHT22;5598;48.648;8.908;2023-02-01T08:47:01;3.80;99.90
11089;DHT22;5598;48.648;8.908;2023-02-01T08:49:28;3.90;99.90
11089;DHT22;5598;48.648;8.908;2023-02-01T08:51:54;3.90;99.90
11089;DHT22;5598;48.648;8.908;2023-02-01T08:54:21;4.00;99.90
11089;DHT22;5598;48.648;8.908;2023-02-01T08:56:49;4.00;99.90
11089;DHT22;5598;48.648;8.908;2023-02-01T08:59:15;4.00;99.90
11089;DHT22;5598;48.648;8.908;2023-02-01T09:01:44;4.00;99.90
11089;DHT22;5598;48.648;8.908;2023-02-01T09:04:10;3.90;99.90
11089;DHT22;5598;48.648;8.908;2023-02-01T09:06:40;4.00;99.90
11089;DHT22;5598;48.648;8.908;2023-02-01T09:09:07;4.00;99.90
11089;DHT22;5598;48.648;8.908;2023-02-01T09:11:34;4.00;99.90
11089;DHT22;5598;48.648;8.908;2023-02-01T09:14:00;3.90;99.90
11089;DHT22;5598;48.648;8.908;2023-02-01T09:16:27;3.90;99.90
11089;DHT22;5598;48.648;8.908;2023-02-01T09:18:56;3.90;99.90
11089;DHT22;5598;48.648;8.908;2023-02-01T09:21:23;3.90;99.90
11089;DHT22;5598;48.648;8.908;2023-02-01T09:23:50;3.90;99.90
11089;DHT22;5598;48.648;8.908;2023-02-01T09:26:17;3.90;99.90
11089;DHT22;5598;48.648;8.908;2023-02-01T09:28:44;3.90;99.90
11089;DHT22;5598;48.648;8.908;2023-02-01T09:31:11;4.00;99.90
11089;DHT22;5598;48.648;8.908;2023-02-01T09:33:37;3.90;99.90
11089;DHT22;5598;48.648;8.908;2023-02-01T09:36:07;4.00;99.90
11089;DHT22;5598;48.648;8.908;2023-02-01T09:38:34;4.00;99.90
11089;DHT22;5598;48.648;8.908;2023-02-01T09:41:01;4.00;99.90
11089;DHT22;5598;48.648;8.908;2023-02-01T09:43:35;4.00;99.90
11089;DHT22;5598;48.648;8.908;2023-02-01T09:46:18;4.00;99.90
11089;DHT22;5598;48.648;8.908;2023-02-01T09:48:46;4.00;99.90
11089;DHT22;5598;48.648;8.908;2023-02-01T09:51:18;4.00;99.90
11089;DHT22;5598;48.648;8.908;2023-02-01T09:53:51;4.10;99.90
11089;DHT22;5598;48.648;8.908;2023-02-01T09:56:23;4.10;99.90
11089;DHT22;5598;48.648;8.908;2023-02-01T09:58:55;4.10;99.90
11089;DHT22;5598;48.648;8.908;2023-02-01T10:01:26;4.10;99.90
11089;DHT22;5598;48.648;8.908;2023-02-01T10:03:59;4.10;99.90
11089;DHT22;5598;48.648;8.908;2023-02-01T10:06:40;4.20;99.90
11089;DHT22;5598;48.648;8.908;2023-02-01T10:09:25;4.20;99.90
11089;DHT22;5598;48.648;8.908;2023-02-01T10:15:02;4.30;99.90
11089;DHT22;5598;48.648;8.908;2023-02-01T10:17:47;4.30;99.90
11089;DHT22;5598;48.648;8.908;2023-02-01T10:20:25;4.30;99.90
11089;DHT22;5598;48.648;8.908;2023-02-01T10:23:01;4.40;99.90
11089;DHT22;5598;48.648;8.908;2023-02-01T10:25:32;4.40;99.90
11089;DHT22;5598;48.648;8.908;2023-02-01T10:28:03;4.40;99.90
11089;DHT22;5598;48.648;8.908;2023-02-01T10:30:35;4.40;99.90
11089;DHT22;5598;48.648;8.908;2023-02-01T10:33:15;4.40;99.90
11089;DHT22;5598;48.648;8.908;2023-02-01T10:35:44;4.50;99.90
11089;DHT22;5598;48.648;8.908;2023-02-01T10:38:20;4.40;99.90
11089;DHT22;5598;48.648;8.908;2023-02-01T10:40:51;4.40;99.90
11089;DHT22;5598;48.648;8.908;2023-02-01T10:43:18;4.40;99.90
11089;DHT22;5598;48.648;8.908;2023-02-01T10:45:46;4.40;99.90
11089;DHT22;5598;48.648;8.908;2023-02-01T10:48:13;4.40;99.90
11089;DHT22;5598;48.648;8.908;2023-02-01T10:50:46;4.40;99.90
11089;DHT22;5598;48.648;8.908;2023-02-01T10:53:20;4.40;99.90
11089;DHT22;5598;48.648;8.908;2023-02-01T10:55:49;4.50;99.90
11089;DHT22;5598;48.648;8.908;2023-02-01T10:58:17;4.40;99.90
11089;DHT22;5598;48.648;8.908;2023-02-01T11:00:52;4.40;99.90
11089;DHT22;5598;48.648;8.908;2023-02-01T11:03:32;4.40;99.90
11089;DHT22;5598;48.648;8.908;2023-02-01T11:06:00;4.40;99.90
11089;DHT22;5598;48.648;8.908;2023-02-01T11:08:28;4.50;99.90
11089;DHT22;5598;48.648;8.908;2023-02-01T11:11:00;4.50;99.90
11089;DHT22;5598;48.648;8.908;2023-02-01T11:13:32;4.40;99.90
11089;DHT22;5598;48.648;8.908;2023-02-01T11:16:03;4.40;99.90
11089;DHT22;5598;48.648;8.908;2023-02-01T11:18:32;4.40;99.90
11089;DHT22;5598;48.648;8.908;2023-02-01T11:21:02;4.40;99.90
11089;DHT22;5598;48.648;8.908;2023-02-01T11:23:32;4.40;99.90
11089;DHT22;5598;48.648;8.908;2023-02-01T11:26:09;4.40;99.90
11089;DHT22;5598;48.648;8.908;2023-02-01T11:28:39;4.50;99.90
11089;DHT22;5598;48.648;8.908;2023-02-01T11:31:09;4.50;99.90
11089;DHT22;5598;48.648;8.908;2023-02-01T11:33:42;4.60;99.90
11089;DHT22;5598;48.648;8.908;2023-02-01T11:36:14;4.70;99.90
11089;DHT22;5598;48.648;8.908;2023-02-01T11:38:47;4.70;99.90
11089;DHT22;5598;48.648;8.908;2023-02-01T11:41:22;4.70;99.90
11089;DHT22;5598;48.648;8.908;2023-02-01T11:43:55;4.80;99.90
11089;DHT22;5598;48.648;8.908;2023-02-01T11:46:26;4.70;99.90
11089;DHT22;5598;48.648;8.908;2023-02-01T11:48:54;4.70;99.90
11089;DHT22;5598;48.648;8.908;2023-02-01T11:51:37;4.70;99.90
11089;DHT22;5598;48.648;8.908;2023-02-01T11:54:23;4.60;99.90
11089;DHT22;5598;48.648;8.908;2023-02-01T11:57:03;4.70;99.90
11089;DHT22;5598;48.648;8.908;2023-02-01T12:02:57;4.60;99.90
11089;DHT22;5598;48.648;8.908;2023-02-01T12:05:34;4.60;99.90
11089;DHT22;5598;48.648;8.908;2023-02-01T12:08:16;4.50;99.90
11089;DHT22;5598;48.648;8.908;2023-02-01T12:10:56;4.50;99.90
11089;DHT22;5598;48.648;8.908;2023-02-01T12:13:36;4.50;99.90
11089;DHT22;5598;48.648;8.908;2023-02-01T12:16:17;4.60;99.90
11089;DHT22;5598;48.648;8.908;2023-02-01T12:19:16;4.60;99.90
11089;DHT22;5598;48.648;8.908;2023-02-01T12:21:53;4.70;99.90
11089;DHT22;5598;48.648;8.908;2023-02-01T12:24:47;4.70;99.90
11089;DHT22;5598;48.648;8.908;2023-02-01T12:27:42;4.80;99.90
11089;DHT22;5598;48.648;8.908;2023-02-01T12:30:36;4.70;99.90
11089;DHT22;5598;48.648;8.908;2023-02-01T12:33:15;4.60;99.90
11089;DHT22;5598;48.648;8.908;2023-02-01T12:35:52;4.60;99.90
11089;DHT22;5598;48.648;8.908;2023-02-01T12:38:44;4.60;99.90
11089;DHT22;5598;48.648;8.908;2023-02-01T12:41:24;4.60;99.90
11089;DHT22;5598;48.648;8.908;2023-02-01T12:43:57;4.50;99.90
11089;DHT22;5598;48.648;8.908;2023-02-01T12:46:29;4.50;99.90
11089;DHT22;5598;48.648;8.908;2023-02-01T12:49:01;4.50;99.90
11089;DHT22;5598;48.648;8.908;2023-02-01T12:51:33;4.60;99.90
11089;DHT22;5598;48.648;8.908;2023-02-01T12:54:03;4.50;99.90
11089;DHT22;5598;48.648;8.908;2023-02-01T12:56:37;4.50;99.90
11089;DHT22;5598;48.648;8.908;2023-02-01T12:59:19;4.50;99.90
11089;DHT22;5598;48.648;8.908;2023-02-01T13:01:51;4.50;99.90
11089;DHT22;5598;48.648;8.908;2023-02-01T13:04:26;4.50;99.90
11089;DHT22;5598;48.648;8.908;2023-02-01T13:06:57;4.40;99.90
11089;DHT22;5598;48.648;8.908;2023-02-01T13:09:27;4.40;99.90
11089;DHT22;5598;48.648;8.908;2023-02-01T13:11:59;4.40;99.90
11089;DHT22;5598;48.648;8.908;2023-02-01T13:14:33;4.40;99.90
11089;DHT22;5598;48.648;8.908;2023-02-01T13:17:05;4.40;99.90
11089;DHT22;5598;48.648;8.908;2023-02-01T13:19:40;4.50;99.90
11089;DHT22;5598;48.648;8.908;2023-02-01T13:22:13;4.50;99.90
11089;DHT22;5598;48.648;8.908;2023-02-01T13:24:44;4.50;99.90
11089;DHT22;5598;48.648;8.908;2023-02-01T13:27:13;4.40;99.90
11089;DHT22;5598;48.648;8.908;2023-02-01T13:29:48;4.40;99.90
11089;DHT22;5598;48.648;8.908;2023-02-01T13:32:42;4.30;99.90
11089;DHT22;5598;48.648;8.908;2023-02-01T13:35:48;4.20;99.90
11089;DHT22;5598;48.648;8.908;2023-02-01T13:38:38;4.20;99.90
11089;DHT22;5598;48.648;8.908;2023-02-01T13:41:21;4.20;99.90
11089;DHT22;5598;48.648;8.908;2023-02-01T13:43:54;4.20;99.90
11089;DHT22;5598;48.648;8.908;2023-02-01T13:46:23;4.30;99.90
11089;DHT22;5598;48.648;8.908;2023-02-01T13:48:52;4.40;99.90
11089;DHT22;5598;48.648;8.908;2023-02-01T13:51:33;4.50;99.90
11089;DHT22;5598;48.648;8.908;2023-02-01T13:54:00;4.60;99.90
11089;DHT22;5598;48.648;8.908;2023-02-01T13:56:27;4.80;99.90
11089;DHT22;5598;48.648;8.908;2023-02-01T13:58:54;4.80;99.90
11089;DHT22;5598;48.648;8.908;2023-02-01T14:01:46;4.80;99.90
11089;DHT22;5598;48.648;8.908;2023-02-01T14:04:47;4.80;99.90
11089;DHT22;5598;48.648;8.908;2023-02-01T14:07:19;4.80;99.90
11089;DHT22;5598;48.648;8.908;2023-02-01T14:09:46;4.80;99.90
11089;DHT22;5598;48.648;8.908;2023-02-01T14:12:44;4.80;99.90
11089;DHT22;5598;48.648;8.908;2023-02-01T14:15:32;4.90;99.90
11089;DHT22;5598;48.648;8.908;2023-02-01T14:18:00;4.90;99.90
11089;DHT22;5598;48.648;8.908;2023-02-01T14:20:46;4.80;99.90
11089;DHT22;5598;48.648;8.908;2023-02-01T14:23:28;4.70;99.90
11089;DHT22;5598;48.648;8.908;2023-02-01T14:26:09;4.70;99.90
11089;DHT22;5598;48.648;8.908;2023-02-01T14:28:40;4.70;99.90
11089;DHT22;5598;48.648;8.908;2023-02-01T14:31:30;4.60;99.90
11089;DHT22;5598;48.648;8.908;2023-02-01T14:34:01;4.60;99.90
11089;DHT22;5598;48.648;8.908;2023-02-01T14:36:41;4.60;99.90
11089;DHT22;5598;48.648;8.908;2023-02-01T14:42:14;4.60;99.90
11089;DHT22;5598;48.648;8.908;2023-02-01T14:44:42;4.60;99.90
11089;DHT22;5598;48.648;8.908;2023-02-01T14:49:58;4.60;99.90
11089;DHT22;5598;48.648;8.908;2023-02-01T14:52:30;4.60;99.90
11089;DHT22;5598;48.648;8.908;2023-02-01T14:55:03;4.50;99.90
11089;DHT22;5598;48.648;8.908;2023-02-01T14:57:31;4.60;99.90
11089;DHT22;5598;48.648;8.908;2023-02-01T15:00:06;4.60;99.90
11089;DHT22;5598;48.648;8.908;2023-02-01T15:02:35;4.60;99.90
11089;DHT22;5598;48.648;8.908;2023-02-01T15:05:25;4.60;99.90
11089;DHT22;5598;48.648;8.908;2023-02-01T15:07:52;4.60;99.90
11089;DHT22;5598;48.648;8.908;2023-02-01T15:10:21;4.70;99.90
11089;DHT22;5598;48.648;8.908;2023-02-01T15:12:48;4.60;99.90
11089;DHT22;5598;48.648;8.908;2023-02-01T15:15:17;4.60;99.90
11089;DHT22;5598;48.648;8.908;2023-02-01T15:17:52;4.60;99.90
11089;DHT22;5598;48.648;8.908;2023-02-01T15:20:23;4.60;99.90
11089;DHT22;5598;48.648;8.908;2023-02-01T15:22:55;4.60;99.90
11089;DHT22;5598;48.648;8.908;2023-02-01T15:25:25;4.50;99.90
11089;DHT22;5598;48.648;8.908;2023-02-01T15:27:52;4.40;99.90
11089;DHT22;5598;48.648;8.908;2023-02-01T15:30:21;4.40;99.90
11089;DHT22;5598;48.648;8.908;2023-02-01T15:32:49;4.30;99.90
11089;DHT22;5598;48.648;8.908;2023-02-01T15:35:37;4.30;99.90
11089;DHT22;5598;48.648;8.908;2023-02-01T15:38:40;4.30;99.90
11089;DHT22;5598;48.648;8.908;2023-02-01T15:41:10;4.30;99.90
11089;DHT22;5598;48.648;8.908;2023-02-01T15:43:40;4.20;99.90
11089;DHT22;5598;48.648;8.908;2023-02-01T15:46:10;4.30;99.90
11089;DHT22;5598;48.648;8.908;2023-02-01T15:48:44;4.30;99.90
11089;DHT22;5598;48.648;8.908;2023-02-01T15:51:16;4.30;99.90
11089;DHT22;5598;48.648;8.908;2023-02-01T15:53:49;4.30;99.90
11089;DHT22;5598;48.648;8.908;2023-02-01T15:56:22;4.20;99.90
11089;DHT22;5598;48.648;8.908;2023-02-01T15:58:53;4.20;99.90
11089;DHT22;5598;48.648;8.908;2023-02-01T16:01:20;4.20;99.90
11089;DHT22;5598;48.648;8.908;2023-02-01T16:03:48;4.20;99.90
11089;DHT22;5598;48.648;8.908;2023-02-01T16:06:29;4.20;99.90
11089;DHT22;5598;48.648;8.908;2023-02-01T16:09:03;4.20;99.90
11089;DHT22;5598;48.648;8.908;2023-02-01T16:11:41;4.20;99.90
11089;DHT22;5598;48.648;8.908;2023-02-01T16:14:08;4.20;99.90
11089;DHT22;5598;48.648;8.908;2023-02-01T16:16:35;4.10;99.90
11089;DHT22;5598;48.648;8.908;2023-02-01T16:19:02;4.00;99.90
11089;DHT22;5598;48.648;8.908;2023-02-01T16:21:30;4.00;99.90
11089;DHT22;5598;48.648;8.908;2023-02-01T16:23:57;3.90;99.90
11089;DHT22;5598;48.648;8.908;2023-02-01T16:26:25;3.90;99.90
11089;DHT22;5598;48.648;8.908;2023-02-01T16:28:51;3.90;99.90
11089;DHT22;5598;48.648;8.908;2023-02-01T16:31:21;3.80;99.90
11089;DHT22;5598;48.648;8.908;2023-02-01T16:33:51;3.80;99.90
11089;DHT22;5598;48.648;8.908;2023-02-01T16:36:18;3.80;99.90
11089;DHT22;5598;48.648;8.908;2023-02-01T16:38:47;3.90;99.90
11089;DHT22;5598;48.648;8.908;2023-02-01T16:41:16;3.90;99.90
11089;DHT22;5598;48.648;8.908;2023-02-01T16:43:43;3.90;99.90
11089;DHT22;5598;48.648;8.908;2023-02-01T16:46:14;3.90;99.90